Time;durP1;ratioP1;P1;durP2;ratioP2;P2;SDS_P1;SDS_P2;PMS_P1;PMS_P2;Temp;Humidity;BMP_temperature;BMP_pressure;BME280_temperature;BME280_humidity;BME280_pressure;Samples;Min_cycle;Max_cycle;Signal;HPM_P1;HPM_P2
2023/07/26 00:01:27;;;;;;;9.70;5.78;;;;;;;28.71;54.15;98523.78;4841998;29;20041;-45
2023/07/26 00:03:58;;;;;;;10.43;5.78;;;;;;;28.41;54.58;98524.19;4842168;29;20034;-44
2023/07/26 00:06:25;;;;;;;9.80;6.03;;;;;;;28.19;55.09;98517.38;4842070;29;20026;-45
2023/07/26 00:08:51;;;;;;;8.15;5.63;;;;;;;28.32;54.77;98506.38;4841523;29;20042;-45
2023/07/26 00:11:17;;;;;;;8.75;5.75;;;;;;;28.20;55.03;98496.31;4841838;29;20041;-42
2023/07/26 00:13:43;;;;;;;8.82;5.80;;;;;;;28.34;54.65;98499.38;4841820;29;20022;-45
2023/07/26 00:16:09;;;;;;;8.60;5.78;;;;;;;28.74;53.60;98482.03;4841462;29;20037;-46
2023/07/26 00:18:34;;;;;;;12.27;6.60;;;;;;;28.43;54.50;98491.81;4841388;29;20500;-43
2023/07/26 00:21:00;;;;;;;8.40;6.05;;;;;;;28.57;54.27;98487.88;4841606;29;20109;-47
2023/07/26 00:23:26;;;;;;;13.73;6.22;;;;;;;28.72;53.93;98481.59;4841621;29;20045;-43
2023/07/26 00:25:51;;;;;;;10.30;6.10;;;;;;;28.84;53.81;98486.97;4841856;29;20463;-45
2023/07/26 00:28:17;;;;;;;9.32;5.65;;;;;;;28.69;54.07;98495.97;4841511;29;20165;-43
2023/07/26 00:30:42;;;;;;;9.07;5.80;;;;;;;28.87;53.88;98482.72;4841533;29;20101;-43
2023/07/26 00:33:08;;;;;;;10.63;6.32;;;;;;;28.74;53.98;98479.28;4841774;29;20033;-44
2023/07/26 00:35:39;;;;;;;9.63;6.10;;;;;;;28.99;53.36;98484.53;4841808;29;20525;-47
2023/07/26 00:38:04;;;;;;;9.13;6.20;;;;;;;28.42;55.23;98475.75;4840515;29;20038;-43
2023/07/26 00:40:30;;;;;;;9.77;6.28;;;;;;;27.97;56.94;98476.94;4841472;29;20439;-43
2023/07/26 00:42:55;;;;;;;10.50;5.72;;;;;;;28.01;57.05;98475.09;4852125;29;20406;-44
2023/07/26 00:45:21;;;;;;;10.45;6.32;;;;;;;27.78;57.98;98464.72;4859790;29;20469;-44
2023/07/26 00:47:48;;;;;;;9.55;6.43;;;;;;;27.79;58.10;98469.00;4859840;29;20040;-44
2023/07/26 00:50:14;;;;;;;12.68;6.25;;;;;;;27.81;58.16;98466.72;4859464;29;20033;-42
2023/07/26 00:52:39;;;;;;;9.25;6.75;;;;;;;27.99;57.56;98466.47;4859569;29;20106;-45
2023/07/26 00:55:06;;;;;;;9.40;6.43;;;;;;;28.00;57.59;98468.03;4859833;29;20097;-44
2023/07/26 00:57:32;;;;;;;9.30;6.30;;;;;;;28.00;57.36;98462.56;4859688;29;20033;-45
2023/07/26 00:59:58;;;;;;;9.85;6.45;;;;;;;28.00;57.57;98463.34;4859496;29;20573;-43
2023/07/26 01:02:24;;;;;;;10.80;6.53;;;;;;;28.05;56.98;98465.06;4859278;29;20034;-44
2023/07/26 01:04:51;;;;;;;10.43;6.50;;;;;;;27.84;57.35;98462.53;4859598;29;20443;-46
2023/07/26 01:07:44;;;;;;;9.23;6.78;;;;;;;28.12;56.61;98456.22;4859358;29;20161;-45
2023/07/26 01:10:20;;;;;;;9.70;6.43;;;;;;;28.30;55.78;98459.44;4859117;29;20030;-46
2023/07/26 01:13:11;;;;;;;8.10;6.07;;;;;;;28.53;54.72;98456.91;4859190;29;20120;-46
2023/07/26 01:15:39;;;;;;;8.40;6.35;;;;;;;28.03;56.04;98462.66;4859447;29;20473;-44
2023/07/26 01:18:16;;;;;;;8.88;6.43;;;;;;;27.62;57.08;98456.44;4859051;29;20455;-41
2023/07/26 01:20:43;;;;;;;9.57;6.18;;;;;;;27.73;57.06;98478.63;4858957;29;20451;-45
2023/07/26 01:23:09;;;;;;;9.65;6.30;;;;;;;28.04;56.25;98468.91;4858779;29;20057;-42
2023/07/26 01:25:35;;;;;;;9.73;6.13;;;;;;;28.14;55.88;98478.53;4858835;29;20043;-42
2023/07/26 01:28:01;;;;;;;13.02;6.00;;;;;;;28.21;55.67;98465.06;4858959;29;20386;-43
2023/07/26 01:30:29;;;;;;;9.10;6.45;;;;;;;28.26;55.30;98470.28;4858758;29;20134;-46
2023/07/26 01:32:59;;;;;;;10.10;6.43;;;;;;;28.20;55.60;98464.28;4858777;29;20121;-46
2023/07/26 01:35:25;;;;;;;8.98;6.30;;;;;;;28.70;53.80;98464.72;4859067;29;20352;-43
2023/07/26 01:37:54;;;;;;;10.95;6.15;;;;;;;28.30;55.46;98473.09;4858803;29;20132;-45
2023/07/26 01:40:21;;;;;;;8.73;6.18;;;;;;;28.15;55.95;98458.28;4858768;29;20041;-42
2023/07/26 01:42:48;;;;;;;11.18;6.22;;;;;;;27.98;55.85;98470.31;4858830;29;20034;-46
2023/07/26 01:45:14;;;;;;;9.48;6.40;;;;;;;28.12;55.89;98480.84;4858602;29;20454;-44
2023/07/26 01:47:39;;;;;;;9.05;6.28;;;;;;;28.31;54.66;98464.56;4858501;29;20025;-45
2023/07/26 01:50:06;;;;;;;9.30;5.93;;;;;;;28.23;54.57;98471.75;4858014;29;20462;-42
2023/07/26 01:52:32;;;;;;;10.13;6.28;;;;;;;28.32;54.95;98476.28;4858460;29;20057;-42
2023/07/26 01:54:58;;;;;;;12.45;6.38;;;;;;;28.35;54.75;98476.38;4858344;29;20033;-47
2023/07/26 01:57:24;;;;;;;11.57;6.07;;;;;;;28.02;55.23;98477.47;4858705;29;20056;-47
2023/07/26 01:59:50;;;;;;;12.02;5.95;;;;;;;28.01;55.47;98466.91;4858872;29;20114;-46
2023/07/26 02:02:16;;;;;;;12.93;6.43;;;;;;;27.97;55.22;98471.47;4858709;29;20033;-42
2023/07/26 02:04:42;;;;;;;9.68;6.72;;;;;;;28.02;54.79;98468.47;4858437;29;20109;-43
2023/07/26 02:07:08;;;;;;;9.82;6.30;;;;;;;27.99;54.40;98469.97;4859059;29;20041;-45
2023/07/26 02:09:33;;;;;;;12.63;6.40;;;;;;;27.58;55.44;98471.16;4858730;29;20033;-47
2023/07/26 02:11:59;;;;;;;8.20;6.07;;;;;;;27.35;56.64;98474.41;4858482;29;20025;-43
2023/07/26 02:14:24;;;;;;;10.00;6.07;;;;;;;27.59;55.63;98487.22;4858571;29;20025;-43
2023/07/26 02:16:50;;;;;;;10.25;6.30;;;;;;;27.84;55.37;98484.38;4858613;29;20414;-44
2023/07/26 02:19:15;;;;;;;9.73;6.53;;;;;;;27.97;55.23;98477.75;4858465;29;20034;-43
2023/07/26 02:21:41;;;;;;;11.57;6.50;;;;;;;27.78;55.62;98470.19;4858594;29;20053;-47
2023/07/26 02:24:06;;;;;;;11.52;6.90;;;;;;;27.50;56.87;98475.63;4858316;29;20068;-44
2023/07/26 02:26:31;;;;;;;10.82;7.35;;;;;;;27.24;58.04;98474.06;4858255;29;20040;-43
2023/07/26 02:28:57;;;;;;;9.40;6.45;;;;;;;27.37;57.92;98482.28;4858338;29;20085;-45
2023/07/26 02:31:22;;;;;;;14.10;6.70;;;;;;;27.60;57.36;98480.59;4858572;29;20485;-43
2023/07/26 02:33:48;;;;;;;10.23;6.47;;;;;;;27.68;57.17;98487.06;4858364;29;20573;-43
2023/07/26 02:36:13;;;;;;;12.90;6.65;;;;;;;27.74;56.86;98482.13;4858309;29;20033;-44
2023/07/26 02:38:39;;;;;;;10.18;6.65;;;;;;;27.83;56.70;98485.50;4858337;29;20116;-42
2023/07/26 02:41:04;;;;;;;12.48;7.05;;;;;;;27.80;56.48;98486.22;4858292;29;20041;-44
2023/07/26 02:43:30;;;;;;;10.90;6.50;;;;;;;27.92;56.05;98491.66;4857901;29;20029;-46
2023/07/26 02:45:55;;;;;;;10.30;6.88;;;;;;;27.94;56.08;98494.03;4858298;29;20362;-42
2023/07/26 02:48:20;;;;;;;12.38;6.47;;;;;;;27.91;56.08;98495.53;4858262;29;20098;-46
2023/07/26 02:50:46;;;;;;;12.05;6.40;;;;;;;27.88;55.93;98493.47;4858458;29;20037;-46
2023/07/26 02:53:11;;;;;;;11.00;6.60;;;;;;;27.92;55.54;98493.59;4858355;29;20407;-48
2023/07/26 02:55:41;;;;;;;11.43;6.68;;;;;;;27.91;55.97;98494.72;4858411;29;20363;-44
2023/07/26 02:58:07;;;;;;;10.18;6.15;;;;;;;27.93;55.83;98489.72;4858834;29;20048;-43
2023/07/26 03:00:32;;;;;;;8.32;6.28;;;;;;;27.88;55.48;98488.00;4858149;29;20394;-47
2023/07/26 03:02:57;;;;;;;10.00;6.53;;;;;;;27.86;55.72;98493.03;4860739;29;20510;-44
2023/07/26 03:05:23;;;;;;;9.00;6.22;;;;;;;27.78;55.48;98488.50;4861450;29;20344;-42
2023/07/26 03:07:48;;;;;;;12.85;6.60;;;;;;;27.72;55.90;98482.50;4861010;29;20045;-44
2023/07/26 03:10:14;;;;;;;12.43;6.35;;;;;;;27.67;56.07;98486.25;4861366;29;20335;-42
2023/07/26 03:12:39;;;;;;;11.48;6.70;;;;;;;27.74;55.83;98473.94;4861357;29;20457;-47
2023/07/26 03:15:05;;;;;;;12.70;6.65;;;;;;;27.56;56.37;98474.25;4861099;29;20077;-45
2023/07/26 03:17:30;;;;;;;11.07;6.78;;;;;;;27.84;55.64;98473.44;4861428;29;20029;-42
2023/07/26 03:19:56;;;;;;;11.40;7.07;;;;;;;27.85;56.01;98478.56;4861172;29;20052;-42
2023/07/26 03:22:22;;;;;;;14.55;7.45;;;;;;;27.85;56.00;98470.38;4861296;29;20033;-47
2023/07/26 03:24:47;;;;;;;12.80;7.43;;;;;;;27.58;57.04;98465.69;4861122;29;20029;-43
2023/07/26 03:27:13;;;;;;;14.10;7.50;;;;;;;27.36;57.82;98462.38;4861172;29;20029;-42
2023/07/26 03:29:38;;;;;;;12.43;7.88;;;;;;;27.08;58.95;98456.84;4860960;29;20521;-45
2023/07/26 03:32:04;;;;;;;12.80;7.68;;;;;;;27.17;58.05;98454.78;4860756;29;20033;-44
2023/07/26 03:34:29;;;;;;;14.15;8.25;;;;;;;26.90;58.36;98464.47;4861148;29;20041;-46
2023/07/26 03:36:55;;;;;;;13.20;7.50;;;;;;;26.77;58.79;98466.44;4861008;29;20041;-46
2023/07/26 03:39:20;;;;;;;11.85;7.07;;;;;;;26.89;58.25;98460.94;4860761;29;20033;-46
2023/07/26 03:41:46;;;;;;;14.15;6.82;;;;;;;26.89;57.35;98457.44;4855565;29;20394;-43
2023/07/26 03:44:11;;;;;;;10.75;7.13;;;;;;;26.65;58.51;98450.06;4842159;29;20170;-45
2023/07/26 03:46:37;;;;;;;11.82;7.00;;;;;;;26.80;57.80;98448.56;4842158;29;20025;-46
2023/07/26 03:49:02;;;;;;;13.60;7.32;;;;;;;26.80;57.84;98440.38;4842495;29;20136;-46
2023/07/26 03:51:28;;;;;;;13.18;6.65;;;;;;;26.88;57.69;98447.63;4842636;29;20061;-46
2023/07/26 03:53:53;;;;;;;11.25;6.63;;;;;;;26.99;57.24;98451.50;4842443;29;20170;-45
2023/07/26 03:56:19;;;;;;;13.65;6.78;;;;;;;26.80;57.58;98441.16;4842710;29;20030;-41
2023/07/26 03:58:44;;;;;;;13.23;6.93;;;;;;;26.81;57.58;98445.50;4842227;29;20033;-41
2023/07/26 04:01:09;;;;;;;9.75;6.50;;;;;;;26.79;57.77;98444.22;4842341;29;20034;-41
2023/07/26 04:03:35;;;;;;;9.65;6.25;;;;;;;26.74;57.67;98444.50;4842188;29;20034;-42
2023/07/26 04:06:00;;;;;;;12.35;6.35;;;;;;;26.84;57.13;98442.06;4842557;29;20613;-42
2023/07/26 04:08:26;;;;;;;11.25;6.28;;;;;;;26.85;56.64;98446.41;4842302;29;20511;-41
2023/07/26 04:10:51;;;;;;;12.15;6.45;;;;;;;26.95;56.50;98449.81;4842286;29;20045;-41
2023/07/26 04:13:17;;;;;;;11.95;6.50;;;;;;;27.15;55.82;98462.50;4841239;29;20034;-42
2023/07/26 04:15:42;;;;;;;12.35;6.68;;;;;;;27.22;55.33;98454.50;4841921;29;20080;-42
2023/07/26 04:18:07;;;;;;;9.52;6.28;;;;;;;26.97;55.71;98444.78;4841613;29;20042;-41
2023/07/26 04:20:33;;;;;;;11.98;6.55;;;;;;;27.17;55.04;98446.59;4841986;29;20036;-41
2023/07/26 04:22:58;;;;;;;9.40;6.10;;;;;;;27.18;55.21;98441.91;4840564;29;20128;-41
2023/07/26 04:25:24;;;;;;;10.20;6.30;;;;;;;27.24;54.82;98435.06;4840670;29;20203;-42
2023/07/26 04:27:49;;;;;;;9.90;6.18;;;;;;;27.60;54.01;98447.81;4839615;29;20034;-43
2023/07/26 04:30:15;;;;;;;10.02;6.07;;;;;;;27.47;53.97;98443.53;4840182;29;20033;-40
2023/07/26 04:32:40;;;;;;;8.20;5.72;;;;;;;27.50;53.68;98434.66;4840801;29;20029;-41
2023/07/26 04:35:06;;;;;;;14.48;6.45;;;;;;;27.57;53.03;98434.88;4840661;29;20060;-41
2023/07/26 04:37:31;;;;;;;10.00;6.35;;;;;;;27.62;53.02;98428.34;4840519;29;20041;-42
2023/07/26 04:39:57;;;;;;;10.00;6.15;;;;;;;27.60;53.33;98412.28;4840609;29;20116;-42
2023/07/26 04:42:22;;;;;;;13.18;6.28;;;;;;;27.50;53.40;98410.88;4841088;29;20068;-41
2023/07/26 04:44:47;;;;;;;8.73;5.97;;;;;;;27.99;52.29;98411.78;4841203;29;20034;-41
2023/07/26 04:47:15;;;;;;;12.05;6.40;;;;;;;27.95;51.91;98405.41;4841359;29;20041;-42
2023/07/26 04:49:41;;;;;;;9.73;6.30;;;;;;;27.97;51.95;98403.94;4841537;29;20034;-42
2023/07/26 04:52:07;;;;;;;11.40;6.53;;;;;;;28.05;51.78;98405.69;4841053;29;20032;-42
2023/07/26 04:54:32;;;;;;;13.07;6.28;;;;;;;27.79;52.16;98400.69;4841027;29;20109;-42
2023/07/26 04:56:58;;;;;;;10.07;5.90;;;;;;;27.72;51.68;98383.31;4840891;29;20030;-43
2023/07/26 04:59:23;;;;;;;10.98;6.40;;;;;;;27.54;52.78;98419.16;4840670;29;20069;-42
2023/07/26 05:01:49;;;;;;;12.57;6.38;;;;;;;28.01;51.84;98418.47;4841245;29;20038;-42
2023/07/26 05:04:14;;;;;;;9.20;5.95;;;;;;;28.04;51.26;98427.91;4840803;29;20471;-43
2023/07/26 05:06:40;;;;;;;12.50;6.13;;;;;;;28.60;49.77;98422.28;4840844;29;20038;-41
2023/07/26 05:09:05;;;;;;;10.07;6.57;;;;;;;28.80;49.66;98419.59;4840678;29;20033;-42
2023/07/26 05:11:31;;;;;;;12.95;6.53;;;;;;;29.24;48.79;98406.50;4841009;29;20041;-41
2023/07/26 05:13:57;;;;;;;11.02;5.78;;;;;;;28.92;48.53;98424.97;4840707;29;20030;-41
2023/07/26 05:16:22;;;;;;;13.23;6.35;;;;;;;29.16;48.13;98445.81;4841092;29;20391;-43
2023/07/26 05:18:47;;;;;;;10.48;5.95;;;;;;;29.37;47.42;98444.69;4846200;29;20091;-42
2023/07/26 05:21:13;;;;;;;9.05;5.75;;;;;;;29.50;47.06;98451.63;4840986;29;20112;-42
2023/07/26 05:23:38;;;;;;;11.30;6.03;;;;;;;30.25;46.02;98476.13;4838994;29;20077;-42
2023/07/26 05:26:04;;;;;;;11.45;6.10;;;;;;;31.32;43.52;98472.31;4839251;29;20511;-41
2023/07/26 05:28:29;;;;;;;10.50;6.13;;;;;;;31.40;42.83;98466.88;4840674;29;20062;-42
2023/07/26 05:30:56;;;;;;;10.07;6.28;;;;;;;31.93;41.80;98472.25;4851344;29;20116;-42
2023/07/26 05:33:22;;;;;;;11.32;6.22;;;;;;;32.29;40.46;98476.16;4858408;29;20037;-42
2023/07/26 05:35:47;;;;;;;11.15;6.13;;;;;;;32.18;40.10;98486.28;4858778;29;20029;-41
2023/07/26 05:38:13;;;;;;;12.07;5.78;;;;;;;31.85;41.15;98487.06;4852525;29;20080;-42
2023/07/26 05:40:38;;;;;;;10.10;6.00;;;;;;;32.08;40.62;98487.75;4840164;29;20049;-42
2023/07/26 05:43:04;;;;;;;8.73;5.60;;;;;;;32.83;39.07;98495.88;4841697;29;20037;-41
2023/07/26 05:45:29;;;;;;;13.43;6.45;;;;;;;32.40;40.44;98491.97;4840018;29;20034;-41
2023/07/26 05:47:55;;;;;;;13.63;6.15;;;;;;;32.71;39.50;98502.47;4840104;29;20395;-42
2023/07/26 05:50:20;;;;;;;12.43;5.90;;;;;;;32.85;39.32;98501.78;4839919;29;20046;-41
2023/07/26 05:52:46;;;;;;;12.23;5.85;;;;;;;33.35;38.33;98492.25;4839574;29;20033;-42
2023/07/26 05:55:12;;;;;;;10.57;5.45;;;;;;;33.68;37.46;98489.28;4839259;29;20112;-40
2023/07/26 05:57:37;;;;;;;13.23;6.00;;;;;;;34.09;36.61;98490.94;4839299;29;20124;-42
2023/07/26 06:00:03;;;;;;;10.13;5.70;;;;;;;33.59;37.49;98490.81;4838284;29;20048;-42
2023/07/26 06:02:29;;;;;;;10.45;5.85;;;;;;;33.61;37.00;98478.19;4838914;29;20026;-41
2023/07/26 06:04:54;;;;;;;10.05;5.72;;;;;;;33.10;37.55;98479.13;4839579;29;20383;-43
2023/07/26 06:07:20;;;;;;;8.32;5.45;;;;;;;32.88;37.73;98464.41;4839782;29;20061;-43
2023/07/26 06:09:46;;;;;;;9.55;5.70;;;;;;;32.67;38.73;98457.63;4839249;29;20419;-42
2023/07/26 06:12:11;;;;;;;8.15;5.93;;;;;;;32.73;38.44;98450.56;4834581;29;20030;-42
2023/07/26 06:14:37;;;;;;;13.38;6.28;;;;;;;33.45;37.39;98444.66;4839660;29;20226;-42
2023/07/26 06:17:03;;;;;;;11.77;6.13;;;;;;;32.77;38.28;98447.84;4838847;29;20036;-42
2023/07/26 06:19:29;;;;;;;11.23;5.93;;;;;;;32.94;38.21;98449.13;4840273;29;20542;-42
2023/07/26 06:21:57;;;;;;;10.57;5.75;;;;;;;32.87;38.21;98440.81;4839865;29;20030;-42
2023/07/26 06:24:23;;;;;;;10.40;5.78;;;;;;;33.04;37.92;98448.38;4839634;29;20112;-42
2023/07/26 06:26:48;;;;;;;10.27;5.82;;;;;;;33.68;37.61;98456.19;4839840;29;20038;-47
2023/07/26 06:29:14;;;;;;;7.70;5.63;;;;;;;34.07;36.52;98458.22;4839995;29;20060;-42
2023/07/26 06:31:39;;;;;;;8.63;5.65;;;;;;;33.99;36.73;98462.16;4839084;29;20494;-42
2023/07/26 06:34:05;;;;;;;8.55;5.68;;;;;;;33.98;36.70;98454.28;4838420;29;20029;-42
2023/07/26 06:36:30;;;;;;;8.77;6.10;;;;;;;34.06;36.44;98455.84;4839333;29;20064;-43
2023/07/26 06:38:56;;;;;;;11.48;5.85;;;;;;;33.88;37.34;98453.84;4841365;29;20030;-43
2023/07/26 06:41:21;;;;;;;12.02;6.30;;;;;;;34.21;36.49;98440.91;4842320;29;20078;-43
2023/07/26 06:43:47;;;;;;;10.32;6.03;;;;;;;35.18;35.03;98438.03;4852576;29;20037;-44
2023/07/26 06:46:12;;;;;;;10.70;5.90;;;;;;;35.76;34.35;98426.75;4861315;29;20064;-44
2023/07/26 06:48:38;;;;;;;14.32;6.35;;;;;;;35.19;35.07;98422.28;4861093;29;20100;-42
2023/07/26 06:51:04;;;;;;;12.68;6.55;;;;;;;34.80;35.57;98420.38;4861396;29;20049;-43
2023/07/26 06:53:30;;;;;;;12.05;6.20;;;;;;;34.74;36.03;98411.69;4861376;29;20042;-44
2023/07/26 06:55:58;;;;;;;11.95;6.68;;;;;;;34.49;36.21;98403.44;4861839;29;20040;-44
2023/07/26 06:58:24;;;;;;;;;;;;;;;34.74;36.17;98410.94;4861877;29;20029;-43
2023/07/26 07:00:49;;;;;;;10.98;6.22;;;;;;;35.07;35.71;98395.81;4861139;29;19943;-43
2023/07/26 07:03:15;;;;;;;13.40;6.38;;;;;;;34.69;35.93;98398.31;4861043;29;20029;-45
2023/07/26 07:05:40;;;;;;;8.95;6.07;;;;;;;34.74;36.36;98388.81;4860623;29;20344;-47
2023/07/26 07:08:06;;;;;;;9.07;6.32;;;;;;;34.62;36.03;98396.31;4860973;29;20108;-45
2023/07/26 07:10:31;;;;;;;10.98;5.97;;;;;;;34.94;36.44;98392.72;4860943;29;20041;-42
2023/07/26 07:12:57;;;;;;;9.60;6.55;;;;;;;35.46;35.13;98386.59;4861576;29;20126;-42
2023/07/26 07:15:22;;;;;;;11.75;6.40;;;;;;;35.84;34.54;98385.97;4861284;29;20033;-44
2023/07/26 07:17:47;;;;;;;9.40;6.00;;;;;;;36.32;33.49;98379.69;4860878;29;20482;-43
2023/07/26 07:20:13;;;;;;;8.77;6.25;;;;;;;35.02;35.53;98393.47;4860694;29;20049;-43
2023/07/26 07:22:38;;;;;;;12.77;6.30;;;;;;;34.89;35.86;98382.06;4860903;29;20030;-45
2023/07/26 07:25:05;;;;;;;9.38;6.20;;;;;;;35.38;35.56;98380.31;4860876;29;20302;-40
2023/07/26 07:27:30;;;;;;;8.80;5.90;;;;;;;35.54;34.27;98382.56;4861215;29;20029;-45
2023/07/26 07:29:56;;;;;;;8.88;6.10;;;;;;;35.22;35.17;98388.28;4860625;29;20125;-45
2023/07/26 07:32:21;;;;;;;14.23;6.28;;;;;;;35.76;34.70;98374.19;4860627;29;20116;-44
2023/07/26 07:34:47;;;;;;;12.48;6.10;;;;;;;35.65;35.01;98376.97;4861031;29;20037;-42
2023/07/26 07:37:13;;;;;;;11.95;6.88;;;;;;;35.74;35.21;98369.06;4860773;29;20555;-43
2023/07/26 07:39:38;;;;;;;14.35;6.75;;;;;;;35.66;35.43;98361.94;4861168;29;20044;-44
2023/07/26 07:42:04;;;;;;;12.30;6.00;;;;;;;36.06;34.33;98375.53;4860954;29;20037;-42
2023/07/26 07:44:30;;;;;;;10.82;5.93;;;;;;;36.35;33.65;98379.66;4860332;29;20035;-43
2023/07/26 07:46:56;;;;;;;9.38;6.35;;;;;;;36.69;33.04;98376.16;4860059;29;20034;-44
2023/07/26 07:49:21;;;;;;;8.15;6.20;;;;;;;36.64;32.97;98367.50;4860705;29;20033;-44
2023/07/26 07:51:47;;;;;;;10.75;6.57;;;;;;;36.36;33.41;98369.34;4860487;29;20036;-46
2023/07/26 07:54:12;;;;;;;11.80;6.38;;;;;;;36.11;33.89;98362.03;4860690;29;20033;-43
2023/07/26 07:56:38;;;;;;;13.73;6.53;;;;;;;36.18;34.33;98370.31;4860545;29;20547;-44
2023/07/26 07:59:04;;;;;;;11.93;5.65;;;;;;;36.53;33.40;98364.81;4860514;29;20040;-44
2023/07/26 08:01:30;;;;;;;13.98;6.60;;;;;;;36.80;32.42;98353.88;4860951;29;20033;-44
2023/07/26 08:03:56;;;;;;;15.32;6.30;;;;;;;36.92;32.56;98355.31;4860428;29;20037;-46
2023/07/26 08:06:21;;;;;;;13.38;6.40;;;;;;;36.78;32.89;98353.50;4860150;29;20040;-44
2023/07/26 08:08:47;;;;;;;13.77;6.65;;;;;;;36.76;32.31;98353.13;4860644;29;20104;-42
2023/07/26 08:11:12;;;;;;;10.07;6.30;;;;;;;37.30;32.72;98356.03;4860236;29;20044;-41
2023/07/26 08:13:38;;;;;;;11.98;6.25;;;;;;;37.81;31.68;98350.53;4860345;29;20033;-43
2023/07/26 08:16:03;;;;;;;10.80;5.65;;;;;;;38.23;31.49;98342.75;4860439;29;20414;-43
2023/07/26 08:18:29;;;;;;;12.63;5.80;;;;;;;38.89;30.49;98338.31;4860199;29;20037;-45
2023/07/26 08:20:54;;;;;;;10.32;6.60;;;;;;;37.92;31.01;98336.50;4860195;29;20045;-43
2023/07/26 08:23:20;;;;;;;10.93;5.78;;;;;;;37.65;32.22;98336.53;4859969;29;20124;-43
2023/07/26 08:25:45;;;;;;;10.23;6.47;;;;;;;37.78;31.58;98333.97;4859868;29;20125;-42
2023/07/26 08:28:11;;;;;;;9.27;5.85;;;;;;;38.36;30.80;98336.56;4859837;29;20129;-45
2023/07/26 08:30:37;;;;;;;13.02;6.07;;;;;;;37.80;31.16;98326.78;4859690;29;20133;-44
2023/07/26 08:33:02;;;;;;;9.23;6.30;;;;;;;37.97;31.12;98330.47;4859810;29;20121;-48
2023/07/26 08:35:28;;;;;;;13.40;6.38;;;;;;;37.37;32.09;98316.31;4859672;29;20061;-43
2023/07/26 08:37:54;;;;;;;10.02;6.25;;;;;;;37.56;31.75;98310.06;4860204;29;20029;-43
2023/07/26 08:40:20;;;;;;;8.63;5.97;;;;;;;37.60;32.05;98301.69;4859836;29;20522;-45
2023/07/26 08:42:46;;;;;;;10.60;6.00;;;;;;;37.89;31.50;98302.06;4859331;29;20022;-45
2023/07/26 08:45:12;;;;;;;10.10;6.15;;;;;;;38.11;30.75;98299.69;4858898;29;20454;-43
2023/07/26 08:47:38;;;;;;;12.98;6.32;;;;;;;38.04;31.49;98307.34;4859290;29;20030;-42
2023/07/26 08:50:05;;;;;;;11.82;6.03;;;;;;;37.93;31.56;98305.53;4859555;29;20082;-44
2023/07/26 08:52:31;;;;;;;9.60;6.32;;;;;;;37.88;31.49;98300.47;4859721;29;20103;-43
2023/07/26 08:54:58;;;;;;;13.18;6.20;;;;;;;38.24;31.03;98296.31;4859264;29;20036;-43
2023/07/26 08:57:24;;;;;;;9.70;6.35;;;;;;;38.88;30.73;98297.84;4859409;29;20105;-43
2023/07/26 08:59:50;;;;;;;8.70;5.72;;;;;;;38.45;30.15;98298.66;4858271;29;20483;-44
2023/07/26 09:02:17;;;;;;;10.18;6.43;;;;;;;38.57;29.89;98286.16;4858911;29;20036;-43
2023/07/26 09:04:45;;;;;;;10.25;6.38;;;;;;;38.96;30.07;98284.56;4859259;29;20063;-42
2023/07/26 09:07:12;;;;;;;11.52;6.30;;;;;;;38.45;30.86;98289.56;4858975;29;20025;-44
2023/07/26 09:09:37;;;;;;;11.02;5.80;;;;;;;38.38;30.69;98271.03;4859161;29;20511;-48
2023/07/26 09:12:04;;;;;;;8.75;5.88;;;;;;;38.19;31.20;98277.34;4859484;29;20112;-43
2023/07/26 09:14:31;;;;;;;10.35;5.80;;;;;;;38.51;30.88;98269.16;4859061;29;20057;-45
2023/07/26 09:16:58;;;;;;;11.85;5.80;;;;;;;38.76;30.38;98284.56;4859130;29;20507;-42
2023/07/26 09:19:42;;;;;;;10.48;6.22;;;;;;;38.95;30.24;98265.53;4859229;29;20047;-42
2023/07/26 09:22:09;;;;;;;9.13;5.95;;;;;;;39.51;29.75;98271.03;4859055;29;20109;-42
2023/07/26 09:24:37;;;;;;;9.50;5.78;;;;;;;39.24;29.93;98272.03;4859191;29;20053;-43
2023/07/26 09:27:07;;;;;;;9.95;6.18;;;;;;;39.41;29.42;98269.25;4858927;29;20051;-43
2023/07/26 09:29:34;;;;;;;11.90;6.00;;;;;;;39.75;28.89;98270.84;4858863;29;20085;-43
2023/07/26 09:32:00;;;;;;;11.02;5.82;;;;;;;39.47;29.88;98262.78;4859027;29;20112;-43
2023/07/26 09:34:25;;;;;;;10.25;5.97;;;;;;;39.97;29.17;98257.19;4858729;29;20113;-42
2023/07/26 09:36:52;;;;;;;13.07;6.05;;;;;;;40.98;27.53;98263.53;4858697;29;20108;-44
2023/07/26 09:39:21;;;;;;;12.25;6.03;;;;;;;40.00;28.94;98264.66;4858844;29;20044;-44
2023/07/26 09:41:48;;;;;;;10.05;5.60;;;;;;;39.69;29.13;98267.81;4858945;29;20044;-43
2023/07/26 09:44:18;;;;;;;11.00;5.95;;;;;;;39.58;29.20;98262.50;4857912;29;20037;-43
2023/07/26 09:46:50;;;;;;;11.88;7.32;;;;;;;39.95;28.10;98260.41;4857732;29;20409;-42
2023/07/26 09:49:17;;;;;;;10.63;5.82;;;;;;;39.42;28.51;98251.38;4858375;29;20113;-44
2023/07/26 09:51:43;;;;;;;11.57;5.88;;;;;;;39.62;28.26;98252.09;4858738;29;20097;-44
2023/07/26 09:54:12;;;;;;;9.30;6.15;;;;;;;39.55;29.66;98249.47;4858352;29;20021;-43
2023/07/26 09:56:40;;;;;;;11.50;5.88;;;;;;;39.58;29.02;98254.16;4858507;29;20097;-41
2023/07/26 09:59:10;;;;;;;10.50;6.13;;;;;;;39.17;28.97;98229.72;4858648;29;20033;-45
2023/07/26 10:01:39;;;;;;;12.15;6.13;;;;;;;39.18;29.40;98232.03;4858599;29;20029;-45
2023/07/26 10:04:09;;;;;;;13.93;6.07;;;;;;;39.53;29.05;98228.84;4858880;29;20028;-42
2023/07/26 10:06:36;;;;;;;13.07;5.95;;;;;;;39.55;28.62;98221.66;4858317;29;20085;-45
2023/07/26 10:09:02;;;;;;;11.30;6.13;;;;;;;40.07;28.12;98211.56;4858794;29;20034;-43
2023/07/26 10:11:29;;;;;;;13.10;6.18;;;;;;;40.40;27.13;98217.81;4858004;29;20278;-44
2023/07/26 10:13:58;;;;;;;8.98;5.65;;;;;;;39.67;27.25;98206.22;4858465;29;20390;-41
2023/07/26 10:16:24;;;;;;;11.32;5.70;;;;;;;39.78;27.37;98206.75;4858246;29;20085;-45
2023/07/26 10:18:53;;;;;;;9.50;5.47;;;;;;;40.15;27.47;98207.34;4858406;29;20101;-43
2023/07/26 10:21:20;;;;;;;9.43;5.85;;;;;;;40.59;26.57;98196.53;4857347;29;20230;-46
2023/07/26 10:23:48;;;;;;;15.23;6.05;;;;;;;40.82;26.36;98200.25;4858058;29;20025;-42
2023/07/26 10:26:15;;;;;;;10.70;6.25;;;;;;;41.02;26.13;98205.63;4841288;29;20041;-44
2023/07/26 10:28:41;;;;;;;11.52;6.18;;;;;;;40.97;25.73;98201.38;4858325;29;20053;-46
2023/07/26 10:31:07;;;;;;;16.55;6.03;;;;;;;40.73;26.23;98194.56;4858192;29;20052;-42
2023/07/26 10:33:33;;;;;;;8.25;5.60;;;;;;;40.69;25.99;98199.44;4858303;29;20034;-45
2023/07/26 10:36:03;;;;;;;11.85;5.85;;;;;;;41.07;26.07;98193.13;4858618;29;20113;-43
2023/07/26 10:38:29;;;;;;;9.65;5.90;;;;;;;41.27;25.94;98185.31;4858376;29;20105;-42
2023/07/26 10:40:54;;;;;;;14.73;6.00;;;;;;;41.44;25.47;98187.97;4858429;29;20029;-44
2023/07/26 10:43:19;;;;;;;11.90;5.80;;;;;;;42.62;24.62;98185.78;4858023;29;20022;-44
2023/07/26 10:45:46;;;;;;;10.23;5.70;;;;;;;42.35;24.16;98189.97;4858370;29;20078;-45
2023/07/26 10:48:13;;;;;;;11.70;5.80;;;;;;;41.46;24.47;98183.47;4858628;29;20100;-44
2023/07/26 10:50:39;;;;;;;9.00;5.50;;;;;;;41.57;24.77;98183.13;4858127;29;20025;-43
2023/07/26 10:53:28;;;;;;;13.40;5.70;;;;;;;42.12;24.75;98175.25;4858176;29;20553;-44
2023/07/26 10:56:07;;;;;;;11.23;5.60;;;;;;;42.55;23.92;98165.25;4858362;29;20045;-44
2023/07/26 10:58:33;;;;;;;9.95;5.63;;;;;;;43.20;22.83;98150.72;4857925;29;20490;-43
2023/07/26 11:01:03;;;;;;;9.95;5.53;;;;;;;43.21;23.42;98144.66;4858633;29;20038;-42
2023/07/26 11:03:29;;;;;;;10.68;5.70;;;;;;;42.97;22.97;98144.44;4857895;29;20418;-43
2023/07/26 11:05:55;;;;;;;11.65;5.80;;;;;;;42.85;23.21;98154.50;4858111;29;20039;-43
2023/07/26 11:08:40;;;;;;;12.18;5.75;;;;;;;42.87;23.04;98151.25;4858128;29;20038;-43
2023/07/26 11:11:06;;;;;;;9.90;5.80;;;;;;;42.07;23.59;98147.88;4858041;29;20048;-43
2023/07/26 11:13:32;;;;;;;11.32;5.78;;;;;;;42.14;23.71;98141.25;4858196;29;20026;-42
2023/07/26 11:16:01;;;;;;;11.07;5.50;;;;;;;42.68;23.20;98131.59;4858094;29;20033;-45
2023/07/26 11:18:26;;;;;;;11.82;5.55;;;;;;;42.27;22.94;98124.41;4858282;29;20033;-43
2023/07/26 11:20:54;;;;;;;11.95;5.40;;;;;;;42.40;22.95;98116.69;4858214;29;20113;-42
2023/07/26 11:23:22;;;;;;;12.25;5.95;;;;;;;42.25;23.13;98115.69;4859756;29;20466;-43
2023/07/26 11:25:49;;;;;;;13.43;5.78;;;;;;;42.67;22.43;98101.28;4861146;29;20038;-44